sensor_id;sensor_type;location;lat;lon;timestamp;P1;durP1;ratioP1;P2;durP2;ratioP2
65477;SDS011;53678;39.642;22.430;2022-08-01T00:00:37;9.65;;;6.30;;
65477;SDS011;53678;39.642;22.430;2022-08-01T00:03:03;9.70;;;6.30;;
65477;SDS011;53678;39.642;22.430;2022-08-01T00:05:29;7.82;;;6.15;;
65477;SDS011;53678;39.642;22.430;2022-08-01T00:07:55;9.30;;;7.20;;
65477;SDS011;53678;39.642;22.430;2022-08-01T00:10:21;10.23;;;6.63;;
65477;SDS011;53678;39.642;22.430;2022-08-01T00:12:47;8.48;;;7.10;;
65477;SDS011;53678;39.642;22.430;2022-08-01T00:15:14;12.40;;;6.65;;
65477;SDS011;53678;39.642;22.430;2022-08-01T00:17:41;7.15;;;6.32;;
65477;SDS011;53678;39.642;22.430;2022-08-01T00:20:10;10.07;;;6.78;;
65477;SDS011;53678;39.642;22.430;2022-08-01T00:22:38;13.20;;;7.00;;
65477;SDS011;53678;39.642;22.430;2022-08-01T00:25:04;10.60;;;6.80;;
65477;SDS011;53678;39.642;22.430;2022-08-01T00:27:31;7.45;;;6.65;;
65477;SDS011;53678;39.642;22.430;2022-08-01T00:29:57;10.25;;;6.53;;
65477;SDS011;53678;39.642;22.430;2022-08-01T00:32:23;7.18;;;5.93;;
65477;SDS011;53678;39.642;22.430;2022-08-01T00:34:50;6.85;;;6.15;;
65477;SDS011;53678;39.642;22.430;2022-08-01T00:37:16;7.00;;;6.30;;
65477;SDS011;53678;39.642;22.430;2022-08-01T00:39:42;7.18;;;6.47;;
65477;SDS011;53678;39.642;22.430;2022-08-01T00:42:09;7.78;;;6.22;;
65477;SDS011;53678;39.642;22.430;2022-08-01T00:44:36;7.15;;;6.32;;
65477;SDS011;53678;39.642;22.430;2022-08-01T00:47:02;9.23;;;6.28;;
65477;SDS011;53678;39.642;22.430;2022-08-01T00:49:29;7.95;;;6.88;;
65477;SDS011;53678;39.642;22.430;2022-08-01T00:51:55;7.68;;;6.50;;
65477;SDS011;53678;39.642;22.430;2022-08-01T00:54:25;8.52;;;6.82;;
65477;SDS011;53678;39.642;22.430;2022-08-01T00:56:52;6.68;;;5.93;;
65477;SDS011;53678;39.642;22.430;2022-08-01T00:59:18;12.38;;;6.30;;
65477;SDS011;53678;39.642;22.430;2022-08-01T01:01:46;8.15;;;5.90;;
65477;SDS011;53678;39.642;22.430;2022-08-01T01:04:13;8.98;;;6.03;;
65477;SDS011;53678;39.642;22.430;2022-08-01T01:12:02;10.68;;;6.00;;
65477;SDS011;53678;39.642;22.430;2022-08-01T01:14:53;10.88;;;5.60;;
65477;SDS011;53678;39.642;22.430;2022-08-01T01:17:36;8.90;;;5.65;;
65477;SDS011;53678;39.642;22.430;2022-08-01T01:20:08;8.30;;;6.20;;
65477;SDS011;53678;39.642;22.430;2022-08-01T01:30:34;8.05;;;5.60;;
65477;SDS011;53678;39.642;22.430;2022-08-01T01:33:05;6.55;;;5.43;;
65477;SDS011;53678;39.642;22.430;2022-08-01T01:35:36;7.88;;;5.35;;
65477;SDS011;53678;39.642;22.430;2022-08-01T01:38:14;7.63;;;5.13;;
65477;SDS011;53678;39.642;22.430;2022-08-01T01:40:45;6.75;;;5.22;;
65477;SDS011;53678;39.642;22.430;2022-08-01T01:43:13;7.97;;;4.97;;
65477;SDS011;53678;39.642;22.430;2022-08-01T01:45:41;7.07;;;5.55;;
65477;SDS011;53678;39.642;22.430;2022-08-01T01:48:09;12.43;;;5.35;;
65477;SDS011;53678;39.642;22.430;2022-08-01T01:50:36;10.23;;;5.82;;
65477;SDS011;53678;39.642;22.430;2022-08-01T01:53:04;7.30;;;4.97;;
65477;SDS011;53678;39.642;22.430;2022-08-01T01:55:31;8.88;;;4.88;;
65477;SDS011;53678;39.642;22.430;2022-08-01T01:57:59;7.72;;;5.25;;
65477;SDS011;53678;39.642;22.430;2022-08-01T02:00:26;8.65;;;4.55;;
65477;SDS011;53678;39.642;22.430;2022-08-01T02:02:53;7.45;;;4.95;;
65477;SDS011;53678;39.642;22.430;2022-08-01T02:05:22;7.13;;;4.20;;
65477;SDS011;53678;39.642;22.430;2022-08-01T02:07:49;7.25;;;4.47;;
65477;SDS011;53678;39.642;22.430;2022-08-01T02:10:17;15.23;;;4.47;;
65477;SDS011;53678;39.642;22.430;2022-08-01T02:12:44;8.85;;;3.78;;
65477;SDS011;53678;39.642;22.430;2022-08-01T02:15:12;5.35;;;4.13;;
65477;SDS011;53678;39.642;22.430;2022-08-01T02:17:41;6.65;;;4.47;;
65477;SDS011;53678;39.642;22.430;2022-08-01T02:20:09;6.07;;;4.35;;
65477;SDS011;53678;39.642;22.430;2022-08-01T02:22:44;11.63;;;4.40;;
65477;SDS011;53678;39.642;22.430;2022-08-01T02:25:15;5.15;;;4.00;;
65477;SDS011;53678;39.642;22.430;2022-08-01T02:27:52;4.03;;;3.63;;
65477;SDS011;53678;39.642;22.430;2022-08-01T02:30:26;7.30;;;3.92;;
65477;SDS011;53678;39.642;22.430;2022-08-01T02:32:58;5.07;;;4.20;;
65477;SDS011;53678;39.642;22.430;2022-08-01T02:35:28;6.30;;;3.88;;
65477;SDS011;53678;39.642;22.430;2022-08-01T02:37:58;6.15;;;4.45;;
65477;SDS011;53678;39.642;22.430;2022-08-01T02:40:27;6.15;;;4.05;;
65477;SDS011;53678;39.642;22.430;2022-08-01T02:42:55;6.93;;;3.90;;
65477;SDS011;53678;39.642;22.430;2022-08-01T02:45:24;4.85;;;3.97;;
65477;SDS011;53678;39.642;22.430;2022-08-01T02:47:53;4.40;;;3.75;;
65477;SDS011;53678;39.642;22.430;2022-08-01T02:50:25;5.40;;;3.83;;
65477;SDS011;53678;39.642;22.430;2022-08-01T02:52:53;5.13;;;3.58;;
65477;SDS011;53678;39.642;22.430;2022-08-01T02:55:22;6.60;;;3.80;;
65477;SDS011;53678;39.642;22.430;2022-08-01T02:57:49;7.00;;;3.92;;
65477;SDS011;53678;39.642;22.430;2022-08-01T03:00:19;4.35;;;3.95;;
65477;SDS011;53678;39.642;22.430;2022-08-01T03:02:45;4.43;;;3.65;;
65477;SDS011;53678;39.642;22.430;2022-08-01T03:05:13;6.28;;;3.58;;
65477;SDS011;53678;39.642;22.430;2022-08-01T03:07:42;4.57;;;3.67;;
65477;SDS011;53678;39.642;22.430;2022-08-01T03:10:08;6.45;;;3.70;;
65477;SDS011;53678;39.642;22.430;2022-08-01T03:12:36;4.60;;;3.13;;
65477;SDS011;53678;39.642;22.430;2022-08-01T03:15:04;7.43;;;3.40;;
65477;SDS011;53678;39.642;22.430;2022-08-01T03:17:31;6.68;;;3.75;;
65477;SDS011;53678;39.642;22.430;2022-08-01T03:19:58;7.50;;;4.00;;
65477;SDS011;53678;39.642;22.430;2022-08-01T03:22:28;7.53;;;3.40;;
65477;SDS011;53678;39.642;22.430;2022-08-01T03:24:57;4.95;;;3.65;;
65477;SDS011;53678;39.642;22.430;2022-08-01T03:27:25;4.82;;;3.50;;
65477;SDS011;53678;39.642;22.430;2022-08-01T03:29:51;6.88;;;3.47;;
65477;SDS011;53678;39.642;22.430;2022-08-01T03:32:20;3.78;;;3.17;;
65477;SDS011;53678;39.642;22.430;2022-08-01T03:34:47;5.50;;;3.33;;
65477;SDS011;53678;39.642;22.430;2022-08-01T03:39:51;5.68;;;3.50;;
65477;SDS011;53678;39.642;22.430;2022-08-01T03:42:25;5.10;;;3.53;;
65477;SDS011;53678;39.642;22.430;2022-08-01T03:44:58;8.65;;;3.70;;
65477;SDS011;53678;39.642;22.430;2022-08-01T03:47:29;5.43;;;3.40;;
65477;SDS011;53678;39.642;22.430;2022-08-01T03:49:59;6.63;;;3.45;;
65477;SDS011;53678;39.642;22.430;2022-08-01T03:52:28;4.95;;;3.92;;
65477;SDS011;53678;39.642;22.430;2022-08-01T03:54:56;7.18;;;3.83;;
65477;SDS011;53678;39.642;22.430;2022-08-01T03:57:28;3.92;;;3.50;;
65477;SDS011;53678;39.642;22.430;2022-08-01T03:59:56;6.18;;;3.80;;
65477;SDS011;53678;39.642;22.430;2022-08-01T04:02:23;7.72;;;4.10;;
65477;SDS011;53678;39.642;22.430;2022-08-01T04:04:49;5.78;;;3.72;;
65477;SDS011;53678;39.642;22.430;2022-08-01T04:07:22;6.38;;;3.78;;
65477;SDS011;53678;39.642;22.430;2022-08-01T04:09:49;9.43;;;3.75;;
65477;SDS011;53678;39.642;22.430;2022-08-01T04:12:15;6.40;;;3.85;;
65477;SDS011;53678;39.642;22.430;2022-08-01T04:14:41;6.43;;;4.25;;
65477;SDS011;53678;39.642;22.430;2022-08-01T04:17:07;6.32;;;3.72;;
65477;SDS011;53678;39.642;22.430;2022-08-01T04:19:33;7.53;;;3.75;;
65477;SDS011;53678;39.642;22.430;2022-08-01T04:22:00;5.05;;;3.85;;
65477;SDS011;53678;39.642;22.430;2022-08-01T04:24:28;7.00;;;3.15;;
65477;SDS011;53678;39.642;22.430;2022-08-01T04:26:55;6.57;;;3.42;;
65477;SDS011;53678;39.642;22.430;2022-08-01T04:29:23;4.78;;;3.88;;
65477;SDS011;53678;39.642;22.430;2022-08-01T04:31:52;4.80;;;3.20;;
65477;SDS011;53678;39.642;22.430;2022-08-01T04:34:20;5.47;;;3.22;;
65477;SDS011;53678;39.642;22.430;2022-08-01T04:36:50;5.55;;;3.47;;
65477;SDS011;53678;39.642;22.430;2022-08-01T04:39:18;3.80;;;3.13;;
65477;SDS011;53678;39.642;22.430;2022-08-01T04:41:45;4.53;;;3.22;;
65477;SDS011;53678;39.642;22.430;2022-08-01T04:44:13;5.75;;;3.28;;
65477;SDS011;53678;39.642;22.430;2022-08-01T04:46:39;4.88;;;3.08;;
65477;SDS011;53678;39.642;22.430;2022-08-01T04:49:06;5.72;;;3.53;;
65477;SDS011;53678;39.642;22.430;2022-08-01T04:51:34;8.98;;;3.50;;
65477;SDS011;53678;39.642;22.430;2022-08-01T04:54:00;14.45;;;3.95;;
65477;SDS011;53678;39.642;22.430;2022-08-01T04:56:26;7.38;;;3.63;;
65477;SDS011;53678;39.642;22.430;2022-08-01T04:58:53;6.75;;;3.70;;
65477;SDS011;53678;39.642;22.430;2022-08-01T05:01:37;6.28;;;3.65;;
65477;SDS011;53678;39.642;22.430;2022-08-01T05:04:03;8.15;;;3.65;;
65477;SDS011;53678;39.642;22.430;2022-08-01T05:06:29;6.90;;;3.75;;
65477;SDS011;53678;39.642;22.430;2022-08-01T05:08:55;11.43;;;3.50;;
65477;SDS011;53678;39.642;22.430;2022-08-01T05:11:21;11.48;;;3.80;;
65477;SDS011;53678;39.642;22.430;2022-08-01T05:13:47;11.60;;;3.85;;
65477;SDS011;53678;39.642;22.430;2022-08-01T05:16:13;12.07;;;3.63;;
65477;SDS011;53678;39.642;22.430;2022-08-01T05:18:39;15.98;;;4.07;;
65477;SDS011;53678;39.642;22.430;2022-08-01T05:21:05;15.30;;;3.60;;
65477;SDS011;53678;39.642;22.430;2022-08-01T05:23:31;11.60;;;3.20;;
65477;SDS011;53678;39.642;22.430;2022-08-01T05:25:57;6.93;;;3.35;;
65477;SDS011;53678;39.642;22.430;2022-08-01T05:28:23;8.93;;;3.22;;
65477;SDS011;53678;39.642;22.430;2022-08-01T05:30:49;8.02;;;3.55;;
65477;SDS011;53678;39.642;22.430;2022-08-01T05:33:15;12.95;;;4.20;;
65477;SDS011;53678;39.642;22.430;2022-08-01T05:35:41;11.70;;;3.50;;
65477;SDS011;53678;39.642;22.430;2022-08-01T05:38:07;6.30;;;3.20;;
65477;SDS011;53678;39.642;22.430;2022-08-01T05:40:33;5.32;;;2.83;;
65477;SDS011;53678;39.642;22.430;2022-08-01T05:42:59;4.80;;;3.05;;
65477;SDS011;53678;39.642;22.430;2022-08-01T05:45:25;6.38;;;3.10;;
65477;SDS011;53678;39.642;22.430;2022-08-01T05:47:51;9.23;;;3.28;;
65477;SDS011;53678;39.642;22.430;2022-08-01T05:50:16;4.28;;;3.03;;
65477;SDS011;53678;39.642;22.430;2022-08-01T05:52:42;7.07;;;2.95;;
65477;SDS011;53678;39.642;22.430;2022-08-01T05:55:08;6.82;;;3.20;;
65477;SDS011;53678;39.642;22.430;2022-08-01T05:57:34;6.13;;;3.10;;
65477;SDS011;53678;39.642;22.430;2022-08-01T06:00:00;3.95;;;3.05;;
65477;SDS011;53678;39.642;22.430;2022-08-01T06:02:39;5.90;;;3.60;;
65477;SDS011;53678;39.642;22.430;2022-08-01T06:05:07;3.90;;;3.38;;
65477;SDS011;53678;39.642;22.430;2022-08-01T06:07:33;7.25;;;4.47;;
65477;SDS011;53678;39.642;22.430;2022-08-01T06:09:59;5.82;;;3.15;;
65477;SDS011;53678;39.642;22.430;2022-08-01T06:12:25;5.40;;;3.10;;
65477;SDS011;53678;39.642;22.430;2022-08-01T06:14:50;6.32;;;3.20;;
65477;SDS011;53678;39.642;22.430;2022-08-01T06:17:16;7.05;;;3.78;;
65477;SDS011;53678;39.642;22.430;2022-08-01T06:19:42;6.20;;;3.22;;
65477;SDS011;53678;39.642;22.430;2022-08-01T06:22:09;6.25;;;3.50;;
65477;SDS011;53678;39.642;22.430;2022-08-01T06:24:35;6.65;;;3.13;;
65477;SDS011;53678;39.642;22.430;2022-08-01T06:27:01;3.55;;;3.08;;
65477;SDS011;53678;39.642;22.430;2022-08-01T06:29:29;7.03;;;3.30;;
65477;SDS011;53678;39.642;22.430;2022-08-01T06:31:56;8.55;;;3.25;;
65477;SDS011;53678;39.642;22.430;2022-08-01T06:34:22;3.72;;;3.05;;
65477;SDS011;53678;39.642;22.430;2022-08-01T06:36:49;5.15;;;3.05;;
65477;SDS011;53678;39.642;22.430;2022-08-01T06:39:15;6.03;;;2.90;;
65477;SDS011;53678;39.642;22.430;2022-08-01T06:41:40;6.72;;;3.30;;
65477;SDS011;53678;39.642;22.430;2022-08-01T06:44:07;5.40;;;2.88;;
65477;SDS011;53678;39.642;22.430;2022-08-01T06:46:34;4.97;;;2.63;;
65477;SDS011;53678;39.642;22.430;2022-08-01T06:49:00;19.10;;;3.30;;
65477;SDS011;53678;39.642;22.430;2022-08-01T06:51:25;5.20;;;3.08;;
65477;SDS011;53678;39.642;22.430;2022-08-01T06:53:52;4.97;;;2.80;;
65477;SDS011;53678;39.642;22.430;2022-08-01T06:56:19;7.63;;;2.50;;
65477;SDS011;53678;39.642;22.430;2022-08-01T06:58:44;8.85;;;2.78;;
65477;SDS011;53678;39.642;22.430;2022-08-01T07:01:10;4.70;;;2.35;;
65477;SDS011;53678;39.642;22.430;2022-08-01T07:03:37;9.30;;;2.97;;
65477;SDS011;53678;39.642;22.430;2022-08-01T07:06:03;5.38;;;2.47;;
65477;SDS011;53678;39.642;22.430;2022-08-01T07:08:29;7.85;;;3.20;;
65477;SDS011;53678;39.642;22.430;2022-08-01T07:10:55;11.10;;;2.53;;
65477;SDS011;53678;39.642;22.430;2022-08-01T07:13:25;5.70;;;2.30;;
65477;SDS011;53678;39.642;22.430;2022-08-01T07:15:52;4.32;;;2.20;;
65477;SDS011;53678;39.642;22.430;2022-08-01T07:18:18;8.63;;;2.00;;
65477;SDS011;53678;39.642;22.430;2022-08-01T07:20:45;7.15;;;2.05;;
65477;SDS011;53678;39.642;22.430;2022-08-01T07:23:13;6.28;;;2.47;;
65477;SDS011;53678;39.642;22.430;2022-08-01T07:25:40;8.68;;;2.30;;
65477;SDS011;53678;39.642;22.430;2022-08-01T07:28:06;8.82;;;2.40;;
65477;SDS011;53678;39.642;22.430;2022-08-01T07:30:32;9.10;;;2.40;;
65477;SDS011;53678;39.642;22.430;2022-08-01T07:32:59;11.00;;;2.30;;
65477;SDS011;53678;39.642;22.430;2022-08-01T07:35:26;6.45;;;2.33;;
65477;SDS011;53678;39.642;22.430;2022-08-01T07:37:51;7.95;;;2.22;;
65477;SDS011;53678;39.642;22.430;2022-08-01T07:40:18;7.75;;;2.10;;
65477;SDS011;53678;39.642;22.430;2022-08-01T07:42:45;5.57;;;2.28;;
65477;SDS011;53678;39.642;22.430;2022-08-01T07:45:12;6.15;;;2.10;;
65477;SDS011;53678;39.642;22.430;2022-08-01T07:47:39;5.28;;;2.70;;
65477;SDS011;53678;39.642;22.430;2022-08-01T07:50:05;7.15;;;2.00;;
65477;SDS011;53678;39.642;22.430;2022-08-01T07:52:31;3.55;;;2.30;;
65477;SDS011;53678;39.642;22.430;2022-08-01T07:54:57;6.70;;;2.00;;
65477;SDS011;53678;39.642;22.430;2022-08-01T07:57:24;3.95;;;2.00;;
65477;SDS011;53678;39.642;22.430;2022-08-01T07:59:51;4.15;;;2.03;;
65477;SDS011;53678;39.642;22.430;2022-08-01T08:02:17;4.22;;;1.90;;
65477;SDS011;53678;39.642;22.430;2022-08-01T08:04:43;6.97;;;1.95;;
65477;SDS011;53678;39.642;22.430;2022-08-01T08:07:08;4.82;;;1.88;;
65477;SDS011;53678;39.642;22.430;2022-08-01T08:09:34;3.47;;;2.10;;
65477;SDS011;53678;39.642;22.430;2022-08-01T08:12:01;3.58;;;1.98;;
65477;SDS011;53678;39.642;22.430;2022-08-01T08:14:26;4.68;;;2.38;;
65477;SDS011;53678;39.642;22.430;2022-08-01T08:16:52;3.55;;;1.83;;
65477;SDS011;53678;39.642;22.430;2022-08-01T08:19:18;3.63;;;2.28;;
65477;SDS011;53678;39.642;22.430;2022-08-01T08:21:44;4.07;;;2.10;;
65477;SDS011;53678;39.642;22.430;2022-08-01T08:24:10;3.25;;;2.22;;
65477;SDS011;53678;39.642;22.430;2022-08-01T08:26:45;4.45;;;2.03;;
65477;SDS011;53678;39.642;22.430;2022-08-01T08:29:12;4.47;;;2.20;;
65477;SDS011;53678;39.642;22.430;2022-08-01T08:31:38;7.88;;;4.18;;
65477;SDS011;53678;39.642;22.430;2022-08-01T08:34:04;7.78;;;2.85;;
65477;SDS011;53678;39.642;22.430;2022-08-01T08:36:30;5.18;;;2.70;;
65477;SDS011;53678;39.642;22.430;2022-08-01T08:38:56;3.08;;;1.90;;
65477;SDS011;53678;39.642;22.430;2022-08-01T08:41:24;3.95;;;2.30;;
65477;SDS011;53678;39.642;22.430;2022-08-01T08:43:50;5.70;;;2.50;;
65477;SDS011;53678;39.642;22.430;2022-08-01T08:46:16;4.65;;;2.28;;
65477;SDS011;53678;39.642;22.430;2022-08-01T08:48:42;8.80;;;2.92;;
65477;SDS011;53678;39.642;22.430;2022-08-01T08:51:09;5.10;;;2.75;;
65477;SDS011;53678;39.642;22.430;2022-08-01T08:53:37;3.38;;;2.50;;
65477;SDS011;53678;39.642;22.430;2022-08-01T08:56:08;5.32;;;2.50;;
65477;SDS011;53678;39.642;22.430;2022-08-01T08:58:43;4.40;;;2.72;;
65477;SDS011;53678;39.642;22.430;2022-08-01T09:01:10;7.65;;;3.45;;
65477;SDS011;53678;39.642;22.430;2022-08-01T09:03:38;4.65;;;2.90;;
65477;SDS011;53678;39.642;22.430;2022-08-01T09:06:05;4.47;;;2.90;;
65477;SDS011;53678;39.642;22.430;2022-08-01T09:08:32;8.05;;;2.83;;
65477;SDS011;53678;39.642;22.430;2022-08-01T09:10:59;9.55;;;3.50;;
65477;SDS011;53678;39.642;22.430;2022-08-01T09:13:25;5.75;;;2.90;;
65477;SDS011;53678;39.642;22.430;2022-08-01T09:15:51;6.43;;;2.70;;
65477;SDS011;53678;39.642;22.430;2022-08-01T09:18:27;6.57;;;2.33;;
65477;SDS011;53678;39.642;22.430;2022-08-01T09:23:49;5.10;;;2.95;;
65477;SDS011;53678;39.642;22.430;2022-08-01T09:26:19;15.85;;;3.20;;
65477;SDS011;53678;39.642;22.430;2022-08-01T09:31:27;5.05;;;2.97;;
65477;SDS011;53678;39.642;22.430;2022-08-01T09:33:57;3.83;;;2.58;;
65477;SDS011;53678;39.642;22.430;2022-08-01T09:36:44;4.28;;;2.85;;
65477;SDS011;53678;39.642;22.430;2022-08-01T09:39:14;6.35;;;2.85;;
65477;SDS011;53678;39.642;22.430;2022-08-01T09:41:40;4.35;;;2.67;;
65477;SDS011;53678;39.642;22.430;2022-08-01T09:44:06;7.38;;;2.97;;
65477;SDS011;53678;39.642;22.430;2022-08-01T09:46:32;4.60;;;2.65;;
65477;SDS011;53678;39.642;22.430;2022-08-01T09:49:03;3.88;;;3.08;;
65477;SDS011;53678;39.642;22.430;2022-08-01T09:53:56;5.38;;;3.00;;
65477;SDS011;53678;39.642;22.430;2022-08-01T09:56:23;5.80;;;2.90;;
65477;SDS011;53678;39.642;22.430;2022-08-01T09:58:56;5.65;;;2.75;;
65477;SDS011;53678;39.642;22.430;2022-08-01T10:01:23;7.03;;;2.83;;
65477;SDS011;53678;39.642;22.430;2022-08-01T10:04:05;6.97;;;2.88;;
65477;SDS011;53678;39.642;22.430;2022-08-01T10:06:35;4.50;;;3.25;;
65477;SDS011;53678;39.642;22.430;2022-08-01T10:09:02;5.45;;;3.10;;
65477;SDS011;53678;39.642;22.430;2022-08-01T10:11:28;5.88;;;3.08;;
65477;SDS011;53678;39.642;22.430;2022-08-01T10:13:56;4.85;;;3.58;;
65477;SDS011;53678;39.642;22.430;2022-08-01T10:16:24;4.97;;;3.10;;
65477;SDS011;53678;39.642;22.430;2022-08-01T10:18:52;3.38;;;2.78;;
65477;SDS011;53678;39.642;22.430;2022-08-01T10:21:19;4.05;;;3.05;;
65477;SDS011;53678;39.642;22.430;2022-08-01T10:23:48;6.10;;;3.22;;
65477;SDS011;53678;39.642;22.430;2022-08-01T10:26:14;6.00;;;3.20;;
65477;SDS011;53678;39.642;22.430;2022-08-01T10:28:41;6.05;;;3.40;;
65477;SDS011;53678;39.642;22.430;2022-08-01T10:31:10;4.53;;;3.20;;
65477;SDS011;53678;39.642;22.430;2022-08-01T10:33:36;4.65;;;3.30;;
65477;SDS011;53678;39.642;22.430;2022-08-01T10:36:05;3.58;;;2.92;;
65477;SDS011;53678;39.642;22.430;2022-08-01T10:38:31;6.20;;;3.30;;
65477;SDS011;53678;39.642;22.430;2022-08-01T10:40:57;3.80;;;3.10;;
65477;SDS011;53678;39.642;22.430;2022-08-01T10:43:27;6.10;;;3.58;;
65477;SDS011;53678;39.642;22.430;2022-08-01T10:45:53;9.88;;;4.30;;
65477;SDS011;53678;39.642;22.430;2022-08-01T10:48:31;4.50;;;3.00;;
65477;SDS011;53678;39.642;22.430;2022-08-01T10:51:12;6.03;;;3.63;;
65477;SDS011;53678;39.642;22.430;2022-08-01T10:53:45;6.07;;;3.58;;
65477;SDS011;53678;39.642;22.430;2022-08-01T10:56:13;4.65;;;3.20;;
65477;SDS011;53678;39.642;22.430;2022-08-01T10:58:39;5.20;;;3.20;;
65477;SDS011;53678;39.642;22.430;2022-08-01T11:01:14;11.32;;;4.03;;
65477;SDS011;53678;39.642;22.430;2022-08-01T11:06:28;5.82;;;3.30;;
65477;SDS011;53678;39.642;22.430;2022-08-01T11:09:17;4.40;;;2.92;;
65477;SDS011;53678;39.642;22.430;2022-08-01T11:11:59;5.13;;;3.13;;
65477;SDS011;53678;39.642;22.430;2022-08-01T11:14:27;6.45;;;3.92;;
65477;SDS011;53678;39.642;22.430;2022-08-01T11:16:54;6.22;;;3.20;;
65477;SDS011;53678;39.642;22.430;2022-08-01T11:19:21;9.52;;;4.10;;
65477;SDS011;53678;39.642;22.430;2022-08-01T11:32:46;9.95;;;3.80;;
65477;SDS011;53678;39.642;22.430;2022-08-01T11:35:14;5.63;;;3.28;;
65477;SDS011;53678;39.642;22.430;2022-08-01T11:37:40;4.97;;;3.65;;
65477;SDS011;53678;39.642;22.430;2022-08-01T11:45:49;7.15;;;4.70;;
65477;SDS011;53678;39.642;22.430;2022-08-01T11:48:17;4.90;;;4.20;;
65477;SDS011;53678;39.642;22.430;2022-08-01T11:50:51;5.65;;;3.90;;
65477;SDS011;53678;39.642;22.430;2022-08-01T11:53:18;7.30;;;3.70;;
65477;SDS011;53678;39.642;22.430;2022-08-01T11:55:54;4.70;;;3.75;;
65477;SDS011;53678;39.642;22.430;2022-08-01T11:58:23;6.18;;;4.53;;
65477;SDS011;53678;39.642;22.430;2022-08-01T12:00:51;6.95;;;4.22;;
65477;SDS011;53678;39.642;22.430;2022-08-01T12:03:22;9.20;;;4.35;;
65477;SDS011;53678;39.642;22.430;2022-08-01T12:05:53;5.55;;;4.22;;
65477;SDS011;53678;39.642;22.430;2022-08-01T12:08:27;7.70;;;4.30;;
65477;SDS011;53678;39.642;22.430;2022-08-01T12:10:55;6.85;;;4.50;;
65477;SDS011;53678;39.642;22.430;2022-08-01T12:13:21;6.65;;;4.65;;
65477;SDS011;53678;39.642;22.430;2022-08-01T12:15:47;6.68;;;4.40;;
65477;SDS011;53678;39.642;22.430;2022-08-01T12:18:15;9.02;;;4.05;;
65477;SDS011;53678;39.642;22.430;2022-08-01T12:20:43;7.32;;;3.90;;
65477;SDS011;53678;39.642;22.430;2022-08-01T12:23:11;5.60;;;4.10;;
65477;SDS011;53678;39.642;22.430;2022-08-01T12:25:39;11.55;;;4.65;;
65477;SDS011;53678;39.642;22.430;2022-08-01T12:28:06;8.52;;;4.70;;
65477;SDS011;53678;39.642;22.430;2022-08-01T12:30:34;5.45;;;4.18;;
65477;SDS011;53678;39.642;22.430;2022-08-01T12:33:02;4.70;;;3.97;;
65477;SDS011;53678;39.642;22.430;2022-08-01T12:35:30;4.40;;;3.17;;
65477;SDS011;53678;39.642;22.430;2022-08-01T12:37:58;4.75;;;3.35;;
65477;SDS011;53678;39.642;22.430;2022-08-01T12:40:30;4.90;;;3.53;;
65477;SDS011;53678;39.642;22.430;2022-08-01T12:43:01;4.80;;;3.50;;
65477;SDS011;53678;39.642;22.430;2022-08-01T12:45:39;4.97;;;3.47;;
65477;SDS011;53678;39.642;22.430;2022-08-01T12:48:11;5.05;;;3.40;;
65477;SDS011;53678;39.642;22.430;2022-08-01T12:50:39;5.68;;;3.20;;
65477;SDS011;53678;39.642;22.430;2022-08-01T12:53:07;6.72;;;3.65;;
65477;SDS011;53678;39.642;22.430;2022-08-01T12:55:41;5.05;;;3.38;;
65477;SDS011;53678;39.642;22.430;2022-08-01T12:58:12;4.35;;;3.63;;
65477;SDS011;53678;39.642;22.430;2022-08-01T13:00:39;5.13;;;3.30;;
65477;SDS011;53678;39.642;22.430;2022-08-01T13:03:11;4.57;;;3.45;;
65477;SDS011;53678;39.642;22.430;2022-08-01T13:05:49;7.20;;;3.40;;
65477;SDS011;53678;39.642;22.430;2022-08-01T13:08:19;4.75;;;3.65;;
65477;SDS011;53678;39.642;22.430;2022-08-01T13:10:50;6.63;;;3.53;;
65477;SDS011;53678;39.642;22.430;2022-08-01T13:13:40;3.58;;;3.15;;
65477;SDS011;53678;39.642;22.430;2022-08-01T13:16:08;6.60;;;3.35;;
65477;SDS011;53678;39.642;22.430;2022-08-01T13:18:35;4.72;;;3.55;;
65477;SDS011;53678;39.642;22.430;2022-08-01T13:24:01;5.10;;;3.20;;
65477;SDS011;53678;39.642;22.430;2022-08-01T13:26:48;6.18;;;3.40;;
65477;SDS011;53678;39.642;22.430;2022-08-01T13:29:17;4.22;;;3.15;;
65477;SDS011;53678;39.642;22.430;2022-08-01T13:31:48;6.65;;;3.15;;
65477;SDS011;53678;39.642;22.430;2022-08-01T13:34:14;8.52;;;3.45;;
65477;SDS011;53678;39.642;22.430;2022-08-01T13:36:41;5.72;;;3.20;;
65477;SDS011;53678;39.642;22.430;2022-08-01T13:39:08;5.47;;;3.35;;
65477;SDS011;53678;39.642;22.430;2022-08-01T13:41:53;6.05;;;3.17;;
65477;SDS011;53678;39.642;22.430;2022-08-01T13:44:18;6.85;;;3.15;;
65477;SDS011;53678;39.642;22.430;2022-08-01T13:46:45;3.88;;;3.17;;
65477;SDS011;53678;39.642;22.430;2022-08-01T13:49:13;6.20;;;3.60;;
65477;SDS011;53678;39.642;22.430;2022-08-01T13:51:41;5.15;;;3.25;;
65477;SDS011;53678;39.642;22.430;2022-08-01T13:54:06;4.85;;;3.47;;
65477;SDS011;53678;39.642;22.430;2022-08-01T13:56:33;4.70;;;3.10;;
65477;SDS011;53678;39.642;22.430;2022-08-01T13:58:59;3.70;;;3.30;;
65477;SDS011;53678;39.642;22.430;2022-08-01T14:01:25;5.47;;;3.28;;
65477;SDS011;53678;39.642;22.430;2022-08-01T14:03:51;4.47;;;3.20;;
65477;SDS011;53678;39.642;22.430;2022-08-01T14:06:18;6.00;;;3.00;;
65477;SDS011;53678;39.642;22.430;2022-08-01T14:08:47;4.40;;;3.17;;
65477;SDS011;53678;39.642;22.430;2022-08-01T14:11:14;4.72;;;3.17;;
65477;SDS011;53678;39.642;22.430;2022-08-01T14:13:40;5.82;;;3.30;;
65477;SDS011;53678;39.642;22.430;2022-08-01T14:16:06;3.55;;;3.08;;
65477;SDS011;53678;39.642;22.430;2022-08-01T14:18:33;5.63;;;3.25;;
65477;SDS011;53678;39.642;22.430;2022-08-01T14:20:59;5.10;;;3.22;;
65477;SDS011;53678;39.642;22.430;2022-08-01T14:23:25;5.43;;;3.05;;
65477;SDS011;53678;39.642;22.430;2022-08-01T14:25:51;3.47;;;2.97;;
65477;SDS011;53678;39.642;22.430;2022-08-01T14:28:18;6.68;;;3.60;;
65477;SDS011;53678;39.642;22.430;2022-08-01T14:30:44;6.65;;;3.20;;
65477;SDS011;53678;39.642;22.430;2022-08-01T14:33:10;5.25;;;3.17;;
65477;SDS011;53678;39.642;22.430;2022-08-01T14:35:37;3.83;;;3.00;;
65477;SDS011;53678;39.642;22.430;2022-08-01T14:38:03;5.57;;;3.28;;
65477;SDS011;53678;39.642;22.430;2022-08-01T14:40:29;5.90;;;2.88;;
65477;SDS011;53678;39.642;22.430;2022-08-01T14:42:55;7.85;;;3.83;;
65477;SDS011;53678;39.642;22.430;2022-08-01T14:45:21;4.55;;;3.13;;
65477;SDS011;53678;39.642;22.430;2022-08-01T14:47:47;4.40;;;3.17;;
65477;SDS011;53678;39.642;22.430;2022-08-01T14:50:14;4.47;;;3.15;;
65477;SDS011;53678;39.642;22.430;2022-08-01T14:52:41;3.85;;;3.13;;
65477;SDS011;53678;39.642;22.430;2022-08-01T14:55:08;5.30;;;3.30;;
65477;SDS011;53678;39.642;22.430;2022-08-01T14:57:36;4.70;;;3.28;;
65477;SDS011;53678;39.642;22.430;2022-08-01T15:00:03;4.47;;;3.20;;
65477;SDS011;53678;39.642;22.430;2022-08-01T15:02:32;4.10;;;3.40;;
65477;SDS011;53678;39.642;22.430;2022-08-01T15:04:58;4.20;;;3.45;;
65477;SDS011;53678;39.642;22.430;2022-08-01T15:07:24;7.45;;;3.20;;
65477;SDS011;53678;39.642;22.430;2022-08-01T15:09:50;5.00;;;3.15;;
65477;SDS011;53678;39.642;22.430;2022-08-01T15:12:16;5.55;;;3.25;;
65477;SDS011;53678;39.642;22.430;2022-08-01T15:14:42;4.10;;;2.70;;
65477;SDS011;53678;39.642;22.430;2022-08-01T15:17:14;5.50;;;3.30;;
65477;SDS011;53678;39.642;22.430;2022-08-01T15:19:49;3.70;;;3.15;;
65477;SDS011;53678;39.642;22.430;2022-08-01T15:22:19;6.45;;;3.55;;
65477;SDS011;53678;39.642;22.430;2022-08-01T15:24:47;3.95;;;3.00;;